createdAt,value
2022-11-18T00:00:08.629Z,937.9538574
2022-11-18T00:01:09.208Z,937.8911133
2022-11-18T00:02:09.765Z,937.8707886
2022-11-18T00:03:10.253Z,937.9329834
2022-11-18T00:04:10.744Z,937.9887695
2022-11-18T00:05:11.966Z,938.0646973
2022-11-18T00:06:13.114Z,938.0582886
2022-11-18T00:07:13.842Z,938.0532227
2022-11-18T00:08:14.318Z,938.0037231
2022-11-18T00:09:15.167Z,937.8864746
2022-11-18T00:10:15.399Z,937.925415
2022-11-18T00:11:15.991Z,937.9406738
2022-11-18T00:12:17.082Z,937.8483887
2022-11-18T00:13:17.654Z,937.9154053
2022-11-18T00:14:18.205Z,937.9171753
2022-11-18T00:15:18.674Z,937.9412231
2022-11-18T00:16:20.172Z,937.9193726
2022-11-18T00:17:20.838Z,937.9473267
2022-11-18T00:18:21.737Z,937.9587402
2022-11-18T00:19:22.638Z,937.9536743
2022-11-18T00:20:23.090Z,937.9504395
2022-11-18T00:21:23.594Z,937.925293
2022-11-18T00:22:29.531Z,937.9609375
2022-11-18T00:23:24.894Z,937.9706421
2022-11-18T00:24:25.952Z,937.9182129
2022-11-18T00:25:57.633Z,937.9504395
2022-11-18T00:26:58.208Z,937.9277954
2022-11-18T00:27:58.741Z,937.8809204
2022-11-18T00:28:59.320Z,937.8664551
2022-11-18T00:29:59.858Z,937.8931274
2022-11-18T00:31:00.526Z,937.890625
2022-11-18T00:32:01.113Z,937.8849487
2022-11-18T00:33:01.705Z,937.9147949
2022-11-18T00:34:02.342Z,937.9260864
2022-11-18T00:35:03.681Z,937.9241943
2022-11-18T00:36:04.601Z,937.9735718
2022-11-18T00:37:05.890Z,937.9500122
2022-11-18T00:38:06.440Z,937.9346313
2022-11-18T00:39:07.003Z,937.9695435
2022-11-18T00:40:07.588Z,937.9281006
2022-11-18T00:41:08.133Z,937.9870605
2022-11-18T00:42:08.691Z,938.0097046
2022-11-18T00:43:09.347Z,938.069519
2022-11-18T00:44:09.936Z,938.0753174
2022-11-18T00:45:11.102Z,938.0614014
2022-11-18T00:46:11.832Z,938.0510254
2022-11-18T00:47:12.450Z,938.0574951
2022-11-18T00:48:13.163Z,938.0896606
2022-11-18T00:49:13.692Z,938.1430664
2022-11-18T00:50:14.201Z,938.0532227
2022-11-18T00:51:14.711Z,938.0476074
2022-11-18T00:52:15.347Z,938.069397
2022-11-18T00:53:16.000Z,938.0076294
2022-11-18T00:54:16.704Z,938.1135254
2022-11-18T00:55:18.158Z,938.0328369
2022-11-18T00:56:18.711Z,938.1101685
2022-11-18T00:57:19.280Z,938.1173706
2022-11-18T00:58:19.935Z,938.1132813
2022-11-18T00:59:20.924Z,938.1325073
2022-11-18T01:00:21.145Z,938.1470337
2022-11-18T01:01:21.650Z,938.1765747
2022-11-18T01:02:22.128Z,938.1771851
2022-11-18T01:03:22.978Z,938.190918
2022-11-18T01:04:23.585Z,938.2870483
2022-11-18T01:05:24.862Z,938.3668823
2022-11-18T01:06:57.065Z,938.3295288
2022-11-18T01:07:57.387Z,938.3013916
2022-11-18T01:08:57.974Z,938.3059082
2022-11-18T01:09:58.625Z,938.3546753
2022-11-18T01:10:59.132Z,938.3392334
2022-11-18T01:11:59.629Z,938.3673706
2022-11-18T01:13:00.108Z,938.3828125
2022-11-18T01:14:00.628Z,938.395874
2022-11-18T01:15:02.106Z,938.3875122
2022-11-18T01:16:02.671Z,938.4625854
2022-11-18T01:17:03.223Z,938.4018555
2022-11-18T01:18:03.705Z,938.4414063
2022-11-18T01:19:04.181Z,938.4414063
2022-11-18T01:20:04.746Z,938.505127
2022-11-18T01:21:05.259Z,938.5067139
2022-11-18T01:22:05.778Z,938.4857788
2022-11-18T01:23:06.332Z,938.5328369
2022-11-18T01:24:06.799Z,938.5457764
2022-11-18T01:25:08.069Z,938.5861206
2022-11-18T01:26:08.646Z,938.5888062
2022-11-18T01:27:09.173Z,938.6534424
2022-11-18T01:28:09.655Z,938.6721802
2022-11-18T01:29:10.195Z,938.6623535
2022-11-18T01:30:10.703Z,938.6908569
2022-11-18T01:31:11.171Z,938.7053833
2022-11-18T01:32:24.840Z,938.6633301
2022-11-18T01:33:12.259Z,938.7628174
2022-11-18T01:34:12.810Z,938.727356
2022-11-18T01:35:14.123Z,938.7379761
2022-11-18T01:36:14.639Z,938.770874
2022-11-18T01:37:15.826Z,938.6537476
2022-11-18T01:38:16.446Z,938.6604614
2022-11-18T01:39:17.244Z,938.6821899
2022-11-18T01:40:17.477Z,938.7040405
2022-11-18T01:41:17.959Z,938.682373
2022-11-18T01:42:18.415Z,938.742981
2022-11-18T01:43:18.921Z,938.6931152
2022-11-18T01:44:19.609Z,938.7561035
2022-11-18T01:45:21.076Z,938.7788086
2022-11-18T01:46:21.584Z,938.7260742
2022-11-18T01:47:22.076Z,938.769043
2022-11-18T01:48:22.769Z,938.7988892
2022-11-18T01:49:23.478Z,938.8128052
2022-11-18T01:50:23.972Z,938.8361206
2022-11-18T01:51:24.891Z,938.9065552
2022-11-18T01:52:55.773Z,938.8884277
2022-11-18T01:53:56.228Z,938.909668
2022-11-18T01:54:56.872Z,938.9468994
2022-11-18T01:55:58.371Z,938.9655762
2022-11-18T01:56:58.952Z,938.9487305
2022-11-18T01:57:59.494Z,938.9489136
2022-11-18T01:58:59.947Z,938.914856
2022-11-18T02:00:00.406Z,938.8950195
2022-11-18T02:01:00.985Z,938.8473511
2022-11-18T02:02:01.592Z,938.8258057
2022-11-18T02:03:01.948Z,938.84375
2022-11-18T02:04:02.516Z,938.7768555
2022-11-18T02:05:03.039Z,938.7181396
2022-11-18T02:06:04.396Z,938.7619629
2022-11-18T02:07:05.629Z,938.7416992
2022-11-18T02:08:06.167Z,938.7652588
2022-11-18T02:09:06.611Z,938.7718506
2022-11-18T02:10:07.111Z,938.7766113
2022-11-18T02:11:07.610Z,938.7711182
2022-11-18T02:12:08.282Z,938.7374268
2022-11-18T02:13:08.720Z,938.7648315
2022-11-18T02:14:09.212Z,938.7567139
2022-11-18T02:15:09.722Z,938.7504883
2022-11-18T02:16:10.824Z,938.803833
2022-11-18T02:17:11.325Z,938.789856
2022-11-18T02:18:12.011Z,938.8258057
2022-11-18T02:19:12.483Z,938.8306274
2022-11-18T02:20:13.016Z,938.8485718
2022-11-18T02:21:13.577Z,938.8581543
2022-11-18T02:22:14.138Z,938.8995361
2022-11-18T02:23:14.875Z,938.9675903
2022-11-18T02:24:15.390Z,938.9367065
2022-11-18T02:25:15.987Z,938.9676514
2022-11-18T02:26:17.348Z,938.9660645
2022-11-18T02:27:17.890Z,938.9857178
2022-11-18T02:28:18.400Z,938.9451294
2022-11-18T02:29:19.382Z,939.0179443
2022-11-18T02:30:19.472Z,939.015625
2022-11-18T02:31:20.105Z,939.0997925
2022-11-18T02:32:20.578Z,939.1289063
2022-11-18T02:33:21.131Z,939.12323
2022-11-18T02:34:21.737Z,939.0437012
2022-11-18T02:35:23.187Z,939.059082
2022-11-18T02:36:24.634Z,939.0935669
2022-11-18T02:37:55.387Z,939.0206299
2022-11-18T02:38:55.897Z,939.0529175
2022-11-18T02:39:56.464Z,939.062439
2022-11-18T02:40:57.405Z,939.0580444
2022-11-18T02:41:58.108Z,939.0565796
2022-11-18T02:42:59.300Z,939.0076294
2022-11-18T02:43:59.803Z,939.0504761
2022-11-18T02:45:00.308Z,939.0930176
2022-11-18T02:46:00.860Z,939.1138916
2022-11-18T02:47:02.357Z,939.1777344
2022-11-18T02:48:02.821Z,939.1856079
2022-11-18T02:49:03.329Z,939.1643677
2022-11-18T02:50:03.824Z,939.2121582
2022-11-18T02:51:04.408Z,939.1877441
2022-11-18T02:52:05.071Z,939.0881958
2022-11-18T02:53:05.811Z,939.0963135
2022-11-18T02:54:06.245Z,939.1529541
2022-11-18T02:55:06.685Z,939.1513062
2022-11-18T02:56:07.791Z,939.0194702
2022-11-18T02:57:08.349Z,939.0831299
2022-11-18T02:58:08.879Z,939.0563965
2022-11-18T02:59:09.350Z,939.0354614
2022-11-18T03:00:09.784Z,939.0360718
2022-11-18T03:01:10.288Z,938.9963989
2022-11-18T03:02:10.784Z,939.100769
2022-11-18T03:03:11.312Z,939.0750122
2022-11-18T03:04:11.841Z,939.0310669
2022-11-18T03:05:12.297Z,939.1112671
2022-11-18T03:06:13.342Z,939.0699463
2022-11-18T03:07:14.675Z,939.0948486
2022-11-18T03:08:15.365Z,939.0657959
2022-11-18T03:09:16.583Z,939.1498413
2022-11-18T03:10:16.615Z,939.1352539
2022-11-18T03:11:17.162Z,939.1484375
2022-11-18T03:12:17.608Z,939.1807861
2022-11-18T03:13:18.127Z,939.1557617
2022-11-18T03:14:18.710Z,939.1661987
2022-11-18T03:15:19.278Z,939.2036133
2022-11-18T03:16:20.339Z,939.246582
2022-11-18T03:17:21.575Z,939.2626343
2022-11-18T03:18:22.034Z,939.2952271
2022-11-18T03:19:22.879Z,939.3388062
2022-11-18T03:20:23.810Z,939.4140625
2022-11-18T03:21:54.607Z,939.3729858
2022-11-18T03:22:55.330Z,939.4271851
2022-11-18T03:23:55.737Z,939.5218506
2022-11-18T03:24:56.342Z,939.5083008
2022-11-18T03:25:57.624Z,939.5172119
2022-11-18T03:26:58.140Z,939.505249
2022-11-18T03:27:58.581Z,939.6387329
2022-11-18T03:28:59.010Z,939.5933838
2022-11-18T03:29:59.468Z,939.6395874
2022-11-18T03:31:00.030Z,939.6210938
2022-11-18T03:32:01.353Z,939.6682129
2022-11-18T03:33:02.038Z,939.6535645
2022-11-18T03:34:02.519Z,939.6981201
2022-11-18T03:35:02.985Z,939.7207642
2022-11-18T03:36:04.106Z,939.7072144
2022-11-18T03:37:10.188Z,939.7450562
2022-11-18T03:38:06.334Z,939.7304688
2022-11-18T03:39:06.875Z,939.7318726
2022-11-18T03:40:07.393Z,939.7706909
2022-11-18T03:41:07.772Z,939.689209
2022-11-18T03:42:08.316Z,939.7600708
2022-11-18T03:43:08.866Z,939.7634277
2022-11-18T03:44:09.367Z,939.7654419
2022-11-18T03:45:09.868Z,939.7784424
2022-11-18T03:46:11.077Z,939.8267212
2022-11-18T03:47:11.566Z,939.8912354
2022-11-18T03:48:12.092Z,939.8531494
2022-11-18T03:49:12.642Z,939.862915
2022-11-18T03:50:13.316Z,939.8917236
2022-11-18T03:51:13.719Z,939.9224854
2022-11-18T03:52:14.164Z,939.9124756
2022-11-18T03:53:14.625Z,939.8534546
2022-11-18T03:54:15.174Z,939.8922119
2022-11-18T03:55:15.741Z,939.9107056
2022-11-18T03:56:17.752Z,939.9770508
2022-11-18T03:57:17.657Z,939.9890137
2022-11-18T03:58:18.829Z,939.9932251
2022-11-18T03:59:19.691Z,940.0165405
2022-11-18T04:00:19.921Z,940.0359497
2022-11-18T04:01:20.508Z,940.0075073
2022-11-18T04:02:20.904Z,940.1578369
2022-11-18T04:03:21.332Z,940.0356445
2022-11-18T04:04:21.814Z,940.0527954
2022-11-18T04:05:22.495Z,940.095459
2022-11-18T04:06:55.039Z,940.132019
2022-11-18T04:07:55.407Z,940.1713867
2022-11-18T04:08:55.871Z,940.213501
2022-11-18T04:09:56.325Z,940.2160645
2022-11-18T04:10:56.918Z,940.1575928
2022-11-18T04:11:57.423Z,940.1359253
2022-11-18T04:13:01.882Z,940.2142334
2022-11-18T04:13:58.460Z,940.2400513
2022-11-18T04:14:58.934Z,940.3103027
2022-11-18T04:16:00.118Z,940.3079834
2022-11-18T04:17:01.367Z,940.3264771
2022-11-18T04:18:01.879Z,940.4475098
2022-11-18T04:19:06.181Z,940.3737793
2022-11-18T04:20:02.927Z,940.3624878
2022-11-18T04:21:03.423Z,940.401123
2022-11-18T04:22:03.876Z,940.3652344
2022-11-18T04:23:04.438Z,940.4008789
2022-11-18T04:24:05.010Z,940.3939209
2022-11-18T04:25:05.603Z,940.5012207
2022-11-18T04:26:07.161Z,940.3768921
2022-11-18T04:27:07.601Z,940.4209595
2022-11-18T04:28:08.131Z,940.4135132
2022-11-18T04:29:08.669Z,940.461731
2022-11-18T04:30:09.239Z,940.4489136
2022-11-18T04:31:09.760Z,940.4567261
2022-11-18T04:32:10.244Z,940.4152832
2022-11-18T04:33:11.328Z,940.3449097
2022-11-18T04:34:11.870Z,940.4868774
2022-11-18T04:35:12.405Z,940.4416504
2022-11-18T04:36:13.679Z,940.3954468
2022-11-18T04:37:14.199Z,940.4071655
2022-11-18T04:38:20.572Z,940.4428101
2022-11-18T04:39:15.983Z,940.4910278
2022-11-18T04:40:16.257Z,940.4810181
2022-11-18T04:41:16.873Z,940.4509888
2022-11-18T04:42:17.474Z,940.5570068
2022-11-18T04:43:18.009Z,940.5211792
2022-11-18T04:44:18.486Z,940.5599365
2022-11-18T04:45:18.937Z,940.5922852
2022-11-18T04:46:20.130Z,940.6252441
2022-11-18T04:47:20.755Z,940.5945435
2022-11-18T04:48:21.374Z,940.6074829
2022-11-18T04:49:21.928Z,940.6113892
2022-11-18T04:50:53.070Z,940.5614014
2022-11-18T04:51:53.629Z,940.5913086
2022-11-18T04:52:54.065Z,940.5742188
2022-11-18T04:53:54.543Z,940.6656494
2022-11-18T04:54:55.096Z,940.6585083
2022-11-18T04:55:55.633Z,940.6853027
2022-11-18T04:56:57.081Z,940.6659546
2022-11-18T04:57:57.468Z,940.6959229
2022-11-18T04:58:58.008Z,940.6668701
2022-11-18T04:59:58.572Z,940.6671753
2022-11-18T05:00:59.156Z,940.7017212
2022-11-18T05:01:59.583Z,940.7246094
2022-11-18T05:03:00.088Z,940.6570435
2022-11-18T05:04:00.569Z,940.7402954
2022-11-18T05:05:01.169Z,940.670166
2022-11-18T05:06:01.691Z,940.673645
2022-11-18T05:07:03.101Z,940.6535645
2022-11-18T05:08:03.493Z,940.6577148
2022-11-18T05:09:03.917Z,940.6660767
2022-11-18T05:10:04.411Z,940.6994019
2022-11-18T05:11:04.883Z,940.6824951
2022-11-18T05:12:06.404Z,940.6801758
2022-11-18T05:13:06.849Z,940.6859131
2022-11-18T05:14:07.333Z,940.6707153
2022-11-18T05:15:08.626Z,940.7340088
2022-11-18T05:16:09.228Z,940.7277832
2022-11-18T05:17:10.576Z,940.7393799
2022-11-18T05:18:11.065Z,940.7935791
2022-11-18T05:19:11.617Z,940.7453613
2022-11-18T05:20:12.076Z,940.7782593
2022-11-18T05:21:12.676Z,940.7510986
2022-11-18T05:22:13.212Z,940.7704468
2022-11-18T05:23:13.773Z,940.8151855
2022-11-18T05:24:14.407Z,940.8167114
2022-11-18T05:25:14.954Z,940.7940674
2022-11-18T05:26:15.456Z,940.8109131
2022-11-18T05:27:16.882Z,940.7767334
2022-11-18T05:28:17.447Z,940.7902832
2022-11-18T05:29:18.249Z,940.8074951
2022-11-18T05:30:18.568Z,940.8244019
2022-11-18T05:31:19.048Z,940.8685913
2022-11-18T05:32:19.556Z,940.8428345
2022-11-18T05:33:20.090Z,940.8926392
2022-11-18T05:34:20.625Z,940.920105
2022-11-18T05:35:21.190Z,940.9854126
2022-11-18T05:36:23.109Z,940.9641113
2022-11-18T05:37:54.970Z,941.0197754
2022-11-18T05:38:55.407Z,941.001709
2022-11-18T05:39:56.018Z,940.9642944
2022-11-18T05:40:56.570Z,940.9579468
2022-11-18T05:41:57.044Z,940.9996948
2022-11-18T05:42:57.596Z,941.0374756
2022-11-18T05:43:58.082Z,941.0728149
2022-11-18T05:44:59.127Z,941.0324097
2022-11-18T05:45:59.306Z,941.0967407
2022-11-18T05:46:59.902Z,941.043457
2022-11-18T05:48:01.364Z,941.0690918
2022-11-18T05:49:01.821Z,941.0825806
2022-11-18T05:50:02.290Z,941.2523193
2022-11-18T05:51:02.848Z,941.1159668
2022-11-18T05:52:03.417Z,941.1425171
2022-11-18T05:53:04.064Z,941.0744019
2022-11-18T05:54:04.518Z,941.145874
2022-11-18T05:55:04.973Z,941.1141968
2022-11-18T05:56:05.518Z,941.1688843
2022-11-18T05:57:06.983Z,941.208252
2022-11-18T05:58:07.562Z,941.2144775
2022-11-18T05:59:08.098Z,941.2022095
2022-11-18T06:00:08.634Z,941.199707
2022-11-18T06:01:09.152Z,941.246582
2022-11-18T06:02:10.629Z,941.2503662
2022-11-18T06:03:11.318Z,941.2575073
2022-11-18T06:04:11.743Z,941.321167
2022-11-18T06:05:12.240Z,941.3379517
2022-11-18T06:06:12.792Z,941.2937622
2022-11-18T06:07:14.028Z,941.3635254
2022-11-18T06:08:14.589Z,941.3748169
2022-11-18T06:09:15.353Z,941.428772
2022-11-18T06:10:15.652Z,941.4255371
2022-11-18T06:11:16.206Z,941.4071655
2022-11-18T06:12:17.330Z,941.3842163
2022-11-18T06:13:17.857Z,941.4472046
2022-11-18T06:14:18.480Z,941.4301758
2022-11-18T06:15:19.139Z,941.4439697
2022-11-18T06:16:19.676Z,941.4472656
2022-11-18T06:17:20.848Z,941.4268799
2022-11-18T06:18:21.825Z,941.5256958
2022-11-18T06:19:52.968Z,941.5303345
2022-11-18T06:20:53.524Z,941.5981445
2022-11-18T06:21:54.082Z,941.5845337
2022-11-18T06:22:54.577Z,941.5686646
2022-11-18T06:23:55.040Z,941.6112671
2022-11-18T06:24:55.656Z,941.6348267
2022-11-18T06:25:56.246Z,941.668457
2022-11-18T06:26:57.626Z,941.7276001
2022-11-18T06:27:58.187Z,941.6978149
2022-11-18T06:28:58.759Z,941.7650146
2022-11-18T06:29:59.261Z,941.7740479
2022-11-18T06:30:59.882Z,941.7540894
2022-11-18T06:32:00.535Z,941.8034668
2022-11-18T06:33:01.608Z,941.8341675
2022-11-18T06:34:02.163Z,941.7843628
2022-11-18T06:35:02.631Z,941.87677
2022-11-18T06:36:03.098Z,941.9123535
2022-11-18T06:37:04.631Z,941.9268799
2022-11-18T06:38:05.185Z,941.9607544
2022-11-18T06:39:05.784Z,941.9611206
2022-11-18T06:40:06.292Z,941.9749756
2022-11-18T06:41:06.801Z,941.9636841
2022-11-18T06:42:07.305Z,942.0089111
2022-11-18T06:43:07.958Z,942.0308838
2022-11-18T06:44:08.576Z,942.0551758
2022-11-18T06:45:09.235Z,942.0834961
2022-11-18T06:46:09.666Z,942.0834961
2022-11-18T06:47:10.619Z,942.0599365
2022-11-18T06:48:11.163Z,942.1411133
2022-11-18T06:49:11.764Z,942.1355591
2022-11-18T06:50:12.260Z,942.1759644
2022-11-18T06:51:12.793Z,942.239502
2022-11-18T06:52:13.317Z,942.2299194
2022-11-18T06:53:13.800Z,942.1940918
2022-11-18T06:54:15.280Z,942.2479858
2022-11-18T06:55:15.805Z,942.229248
2022-11-18T06:56:16.371Z,942.2476807
2022-11-18T06:57:17.679Z,942.2683716
2022-11-18T06:58:18.122Z,942.2770996
2022-11-18T06:59:18.930Z,942.3103638
2022-11-18T07:00:19.166Z,942.3353271
2022-11-18T07:01:19.713Z,942.2712402
2022-11-18T07:02:20.202Z,942.300415
2022-11-18T07:03:21.167Z,942.3549805
2022-11-18T07:04:51.977Z,942.3571777
2022-11-18T07:05:52.572Z,942.394043
2022-11-18T07:06:53.233Z,942.3995361
2022-11-18T07:07:54.430Z,942.3378296
2022-11-18T07:08:54.915Z,942.309082
2022-11-18T07:09:55.400Z,942.401123
2022-11-18T07:10:55.936Z,942.5284424
2022-11-18T07:11:56.538Z,942.4547729
2022-11-18T07:12:57.110Z,942.4973145
2022-11-18T07:13:57.644Z,942.4308472
2022-11-18T07:14:58.134Z,942.437561
2022-11-18T07:15:58.644Z,942.4795532
2022-11-18T07:17:00.105Z,942.5438843
2022-11-18T07:18:00.688Z,942.4924927
2022-11-18T07:19:02.156Z,942.5321655
2022-11-18T07:20:02.748Z,942.5548706
2022-11-18T07:21:03.227Z,942.522522
2022-11-18T07:22:03.740Z,942.5715332
2022-11-18T07:23:04.380Z,942.5673218
2022-11-18T07:24:04.949Z,942.5942383
2022-11-18T07:25:05.556Z,942.5673218
2022-11-18T07:26:06.081Z,942.616394
2022-11-18T07:27:07.131Z,942.581543
2022-11-18T07:28:07.651Z,942.515625
2022-11-18T07:29:08.295Z,942.5301514
2022-11-18T07:30:08.870Z,942.5281982
2022-11-18T07:31:09.405Z,942.5934448
2022-11-18T07:32:09.938Z,942.585022
2022-11-18T07:33:10.436Z,942.6356812
2022-11-18T07:34:10.984Z,942.6525269
2022-11-18T07:35:11.676Z,942.6821899
2022-11-18T07:36:13.116Z,942.6520996
2022-11-18T07:37:14.608Z,942.6333618
2022-11-18T07:38:15.109Z,942.6956177
2022-11-18T07:39:16.115Z,942.7076416
2022-11-18T07:40:16.390Z,942.7279663
2022-11-18T07:41:16.819Z,942.7715454
2022-11-18T07:42:18.171Z,942.7926025
2022-11-18T07:43:18.796Z,942.7839355
2022-11-18T07:44:19.294Z,942.8739014
2022-11-18T07:45:19.803Z,942.8771362
2022-11-18T07:46:20.776Z,942.8690796
2022-11-18T07:47:52.540Z,942.8972168
2022-11-18T07:48:53.115Z,942.8755493
2022-11-18T07:49:53.686Z,942.918457
2022-11-18T07:50:54.240Z,942.9362793
2022-11-18T07:51:54.741Z,942.9440918
2022-11-18T07:52:55.341Z,942.9795532
2022-11-18T07:53:55.866Z,942.9929199
2022-11-18T07:54:56.508Z,942.9648438
2022-11-18T07:55:57.014Z,942.9067383
2022-11-18T07:56:57.542Z,942.9829712
2022-11-18T07:57:59.010Z,942.9515381
2022-11-18T07:58:59.657Z,943.0114136
2022-11-18T08:00:00.220Z,942.9893799
2022-11-18T08:01:00.886Z,943.0114136
2022-11-18T08:02:02.174Z,943.0759277
2022-11-18T08:03:02.719Z,942.9919434
2022-11-18T08:04:03.281Z,942.963623
2022-11-18T08:05:03.864Z,942.9807129
2022-11-18T08:06:04.511Z,943.1027832
2022-11-18T08:07:04.975Z,943.0278931
2022-11-18T08:08:06.352Z,943.0456543
2022-11-18T08:09:06.857Z,943.0725098
2022-11-18T08:10:07.427Z,943.1218872
2022-11-18T08:11:07.983Z,943.0818481
2022-11-18T08:12:08.495Z,943.1206055
2022-11-18T08:13:09.009Z,943.1567993
2022-11-18T08:14:09.507Z,943.1923218
2022-11-18T08:15:09.994Z,943.1800537
2022-11-18T08:16:10.672Z,943.1713867
2022-11-18T08:17:11.189Z,943.192627
2022-11-18T08:18:13.801Z,943.1894531
2022-11-18T08:19:12.921Z,943.1907959
2022-11-18T08:20:13.390Z,943.210144
2022-11-18T08:21:14.043Z,943.2034302
2022-11-18T08:22:14.689Z,943.222168
2022-11-18T08:23:15.380Z,943.2242432
2022-11-18T08:24:15.926Z,943.1461182
2022-11-18T08:25:16.412Z,943.2497559
2022-11-18T08:26:31.905Z,943.159668
2022-11-18T08:27:17.475Z,943.1929932
2022-11-18T08:28:18.984Z,943.1732788
2022-11-18T08:29:24.726Z,943.2198486
2022-11-18T08:30:50.593Z,943.1772461
2022-11-18T08:31:51.110Z,943.1889038
2022-11-18T08:32:51.623Z,943.1808472
2022-11-18T08:33:52.509Z,943.2037354
2022-11-18T08:34:53.100Z,943.2209473
2022-11-18T08:35:53.673Z,943.2861938
2022-11-18T08:36:54.210Z,943.2564697
2022-11-18T08:37:55.620Z,943.3004761
2022-11-18T08:38:56.233Z,943.3085327
2022-11-18T08:39:56.788Z,943.2749023
2022-11-18T08:40:57.375Z,943.3848267
2022-11-18T08:41:58.925Z,943.2484131
2022-11-18T08:42:59.376Z,943.2931519
2022-11-18T08:43:59.899Z,943.2584229
2022-11-18T08:45:00.521Z,943.3063354
2022-11-18T08:46:01.118Z,943.2837524
2022-11-18T08:47:01.769Z,943.3209229
2022-11-18T08:48:02.918Z,943.3428955
2022-11-18T08:49:03.424Z,943.378418
2022-11-18T08:50:03.959Z,943.4003906
2022-11-18T08:51:04.538Z,943.3584595
2022-11-18T08:52:05.119Z,943.3716431
2022-11-18T08:53:05.647Z,943.3865356
2022-11-18T08:54:06.188Z,943.3517456
2022-11-18T08:55:06.714Z,943.4004517
2022-11-18T08:56:07.168Z,943.4285889
2022-11-18T08:57:07.927Z,943.3574829
2022-11-18T08:58:08.926Z,943.3817139
2022-11-18T08:59:10.134Z,943.3978271
2022-11-18T09:00:10.621Z,943.392334
2022-11-18T09:01:11.155Z,943.4053345
2022-11-18T09:02:11.782Z,943.3794556
2022-11-18T09:03:12.229Z,943.4208374
2022-11-18T09:04:12.832Z,943.4364014
2022-11-18T09:05:13.383Z,943.4412231
2022-11-18T09:06:13.888Z,943.4234619
2022-11-18T09:07:14.599Z,943.4483032
2022-11-18T09:08:16.035Z,943.3959351
2022-11-18T09:09:16.569Z,943.3794556
2022-11-18T09:10:17.188Z,943.4586182
2022-11-18T09:11:17.808Z,943.4440918
2022-11-18T09:12:18.995Z,943.4298706
2022-11-18T09:14:25.909Z,943.4977417
2022-11-18T09:15:12.825Z,943.4363403
2022-11-18T09:15:51.275Z,943.5290527
2022-11-18T09:16:51.850Z,943.4277954
2022-11-18T09:17:54.136Z,943.494751
2022-11-18T09:18:54.589Z,943.4666138
2022-11-18T09:19:55.203Z,943.5345459
2022-11-18T09:20:55.722Z,943.4951782
2022-11-18T09:21:56.378Z,943.522583
2022-11-18T09:22:57.087Z,943.5031738
2022-11-18T09:23:57.471Z,943.5516968
2022-11-18T09:24:57.996Z,943.5287476
2022-11-18T09:25:58.537Z,943.5578003
2022-11-18T09:26:59.162Z,943.5792236
2022-11-18T09:28:00.675Z,943.5484619
2022-11-18T09:29:01.279Z,943.5209961
2022-11-18T09:30:01.770Z,943.5979614
2022-11-18T09:31:02.244Z,943.6593628
2022-11-18T09:32:02.878Z,943.6716309
2022-11-18T09:33:03.450Z,943.6578369
2022-11-18T09:34:04.007Z,943.7053223
2022-11-18T09:35:04.557Z,943.6665039
2022-11-18T09:36:05.022Z,943.7156372
2022-11-18T09:37:06.976Z,943.7340698
2022-11-18T09:38:07.670Z,943.7006836
2022-11-18T09:39:08.212Z,943.6790771
2022-11-18T09:40:08.736Z,943.6878052
2022-11-18T09:41:09.207Z,943.7246094
2022-11-18T09:42:09.840Z,943.7156372
2022-11-18T09:43:11.525Z,943.7192383
2022-11-18T09:44:12.280Z,943.7318115
2022-11-18T09:45:14.680Z,943.78125
2022-11-18T09:46:13.502Z,943.7999878
2022-11-18T09:47:14.891Z,943.8156128
2022-11-18T09:48:16.344Z,943.8546753
2022-11-18T09:49:17.341Z,943.7845459
2022-11-18T09:50:41.788Z,943.8954468
2022-11-18T09:51:50.097Z,943.9081421
2022-11-18T09:52:50.590Z,943.9625244
2022-11-18T09:53:51.186Z,943.8800049
2022-11-18T09:54:51.653Z,943.9020386
2022-11-18T09:55:52.481Z,943.871582
2022-11-18T09:56:53.054Z,943.9198608
2022-11-18T09:57:53.474Z,943.9298706
2022-11-18T09:58:54.858Z,943.9224854
2022-11-18T09:59:55.454Z,943.899231
2022-11-18T10:00:55.990Z,943.9587402
2022-11-18T10:01:56.635Z,944.0305176
2022-11-18T10:02:57.041Z,944.0228271
2022-11-18T10:03:57.520Z,944.0001831
2022-11-18T10:04:58.088Z,944.0343628
2022-11-18T10:05:58.595Z,944.0402832
2022-11-18T10:06:59.137Z,944.0267334
2022-11-18T10:07:59.609Z,944.1026611
2022-11-18T10:09:00.848Z,944.0778198
2022-11-18T10:10:01.294Z,944.1253052
2022-11-18T10:11:01.843Z,944.0250244
2022-11-18T10:12:03.099Z,944.0896606
2022-11-18T10:13:03.544Z,944.1204834
2022-11-18T10:14:05.120Z,944.1165771
2022-11-18T10:15:05.615Z,944.071228
2022-11-18T10:16:06.325Z,944.0803223
2022-11-18T10:17:07.718Z,944.0545044
2022-11-18T10:18:10.139Z,944.0809937
2022-11-18T10:19:10.733Z,944.0923462
2022-11-18T10:20:11.182Z,944.0557861
2022-11-18T10:21:11.631Z,944.050293
2022-11-18T10:22:19.493Z,944.1095581
2022-11-18T10:23:13.081Z,944.0719604
2022-11-18T10:24:13.777Z,944.0373535
2022-11-18T10:25:14.268Z,944.0444336
2022-11-18T10:26:14.772Z,944.0745239
2022-11-18T10:27:15.387Z,944.0541992
2022-11-18T10:28:18.272Z,944.1350098
2022-11-18T10:29:50.206Z,944.0470581
2022-11-18T10:30:50.751Z,944.1126709
2022-11-18T10:31:51.241Z,944.1289063
2022-11-18T10:32:51.759Z,944.1356812
2022-11-18T10:33:52.715Z,944.2327271
2022-11-18T10:34:53.570Z,944.1893921
2022-11-18T10:35:54.927Z,944.1548462
2022-11-18T10:36:55.433Z,944.159668
2022-11-18T10:38:07.830Z,944.1486206
2022-11-18T10:38:58.307Z,944.2184448
2022-11-18T10:39:59.057Z,944.1467285
2022-11-18T10:40:59.525Z,944.1276855
2022-11-18T10:42:00.041Z,944.119873
2022-11-18T10:43:01.356Z,944.1418457
2022-11-18T10:44:01.848Z,944.1531372
2022-11-18T10:45:02.470Z,944.1126709
2022-11-18T10:46:02.962Z,944.1304932
2022-11-18T10:47:03.448Z,944.145752
2022-11-18T10:48:03.933Z,944.1576538
2022-11-18T10:49:05.432Z,944.1165771
2022-11-18T10:50:06.001Z,944.1317749
2022-11-18T10:51:06.772Z,944.1660767
2022-11-18T10:52:07.432Z,944.0923462
2022-11-18T10:53:07.924Z,944.1036987
2022-11-18T10:54:08.444Z,944.1955566
2022-11-18T10:55:09.063Z,944.1192017
2022-11-18T10:56:09.711Z,944.111084
2022-11-18T10:57:10.336Z,944.1201782
2022-11-18T10:58:11.034Z,944.1101685
2022-11-18T10:59:12.342Z,944.1304932
2022-11-18T11:00:12.814Z,944.1062622
2022-11-18T11:01:13.416Z,944.0836182
2022-11-18T11:02:13.906Z,944.0635986
2022-11-18T11:03:14.413Z,944.0344238
2022-11-18T11:04:15.332Z,944.0256958